Time;durP1;ratioP1;P1;durP2;ratioP2;P2;SDS_P1;SDS_P2;PMS_P1;PMS_P2;Temp;Humidity;BMP_temperature;BMP_pressure;BME280_temperature;BME280_humidity;BME280_pressure;Samples;Min_cycle;Max_cycle;Signal;HPM_P1;HPM_P2
2023/08/03 00:00:29;;;;;;;37.38;8.40;;;24.10;83.60;;;;;;5022934;28;20026;-57
2023/08/03 00:02:54;;;;;;;38.70;8.00;;;24.10;83.60;;;;;;5009285;28;20042;-57
2023/08/03 00:05:20;;;;;;;37.40;8.07;;;24.10;83.40;;;;;;5026754;28;20137;-57
2023/08/03 00:07:46;;;;;;;37.20;7.22;;;24.00;83.30;;;;;;5027272;28;20026;-57
2023/08/03 00:10:12;;;;;;;35.92;7.35;;;24.00;83.30;;;;;;5010088;28;20032;-56
2023/08/03 00:12:37;;;;;;;40.90;7.80;;;24.00;83.30;;;;;;5009315;28;20120;-56
2023/08/03 00:15:03;;;;;;;25.55;7.05;;;23.90;83.20;;;;;;5027742;28;20025;-57
2023/08/03 00:17:29;;;;;;;29.88;7.10;;;23.90;83.30;;;;;;5027710;28;20045;-57
2023/08/03 00:19:54;;;;;;;27.13;6.75;;;23.90;83.30;;;;;;5027581;28;20030;-57
2023/08/03 00:22:20;;;;;;;36.08;7.63;;;23.90;83.30;;;;;;5026329;28;20045;-57
2023/08/03 00:24:46;;;;;;;30.88;5.95;;;23.80;83.10;;;;;;5027479;28;20105;-56
2023/08/03 00:27:11;;;;;;;25.35;6.03;;;23.80;82.90;;;;;;5027421;28;20029;-56
2023/08/03 00:29:37;;;;;;;24.92;6.10;;;23.80;83.00;;;;;;5025997;28;20535;-56
2023/08/03 00:32:02;;;;;;;27.30;6.25;;;23.70;82.90;;;;;;5026236;28;20201;-57
2023/08/03 00:34:31;;;;;;;20.30;5.10;;;23.70;82.80;;;;;;5026048;28;20103;-56
2023/08/03 00:36:57;;;;;;;19.40;5.40;;;23.70;82.70;;;;;;5025865;28;20022;-56
2023/08/03 00:39:23;;;;;;;21.92;5.38;;;23.60;82.80;;;;;;5025864;28;20041;-56
2023/08/03 00:41:49;;;;;;;16.88;4.60;;;23.60;82.70;;;;;;5025874;28;20417;-56
2023/08/03 00:44:14;;;;;;;19.50;4.18;;;23.60;82.80;;;;;;5009397;28;20097;-56
2023/08/03 00:46:40;;;;;;;23.05;4.65;;;23.50;82.70;;;;;;5025886;28;20064;-56
2023/08/03 00:49:05;;;;;;;23.20;4.50;;;23.50;82.60;;;;;;5025749;28;20038;-56
2023/08/03 00:51:31;;;;;;;16.38;4.70;;;23.40;82.70;;;;;;5024871;28;20052;-57
2023/08/03 00:53:56;;;;;;;18.90;4.10;;;23.40;82.60;;;;;;5025227;28;20041;-56
2023/08/03 00:56:22;;;;;;;13.38;4.22;;;23.40;82.50;;;;;;5025739;28;20072;-57
2023/08/03 00:58:47;;;;;;;17.15;4.43;;;23.40;82.50;;;;;;5025541;28;20040;-56
2023/08/03 01:01:13;;;;;;;15.38;4.00;;;23.40;82.50;;;;;;5024606;28;20026;-57
2023/08/03 01:03:38;;;;;;;14.57;4.10;;;23.30;82.40;;;;;;5008299;28;20061;-57
2023/08/03 01:06:04;;;;;;;19.15;3.95;;;23.30;82.30;;;;;;5008589;28;20034;-57
2023/08/03 01:08:30;;;;;;;15.02;3.05;;;23.30;82.30;;;;;;5007372;28;20036;-57
2023/08/03 01:10:55;;;;;;;15.90;3.75;;;23.30;82.20;;;;;;5024140;28;20026;-57
2023/08/03 01:13:21;;;;;;;12.23;3.22;;;23.30;82.10;;;;;;5025367;28;20025;-56
2023/08/03 01:15:46;;;;;;;11.98;3.75;;;23.20;81.80;;;;;;5008946;28;20057;-57
2023/08/03 01:18:12;;;;;;;8.85;3.05;;;23.20;81.80;;;;;;5008939;28;20037;-56
2023/08/03 01:20:37;;;;;;;9.10;2.80;;;23.10;82.30;;;;;;5008548;28;20034;-56
2023/08/03 01:23:08;;;;;;;10.63;3.03;;;23.10;81.80;;;;;;5008858;28;20034;-57
2023/08/03 01:25:34;;;;;;;9.05;2.58;;;23.10;81.70;;;;;;5009431;28;20113;-57
2023/08/03 01:27:59;;;;;;;7.80;2.63;;;23.00;81.50;;;;;;5024922;28;20378;-57
2023/08/03 01:30:25;;;;;;;13.90;3.00;;;22.90;81.50;;;;;;5026291;28;20030;-57
2023/08/03 01:32:51;;;;;;;7.05;2.80;;;22.90;81.40;;;;;;5025040;28;20026;-56
2023/08/03 01:35:16;;;;;;;11.15;3.10;;;22.90;81.40;;;;;;5024896;28;20029;-57
2023/08/03 01:37:42;;;;;;;9.52;2.60;;;22.90;81.40;;;;;;5024983;28;20058;-57
2023/08/03 01:40:08;;;;;;;9.38;2.83;;;22.90;81.40;;;;;;5026119;28;20052;-57
2023/08/03 01:42:33;;;;;;;8.80;2.35;;;22.90;81.40;;;;;;5024670;28;20085;-57
2023/08/03 01:44:59;;;;;;;7.43;2.33;;;22.80;81.30;;;;;;5024596;28;20041;-57
2023/08/03 01:47:25;;;;;;;7.53;2.25;;;22.90;81.40;;;;;;5023966;28;20029;-57
2023/08/03 01:49:50;;;;;;;5.07;2.20;;;22.80;81.30;;;;;;4991136;28;20033;-56
2023/08/03 01:52:16;;;;;;;7.15;2.78;;;22.80;81.30;;;;;;5022805;28;20034;-56
2023/08/03 01:54:41;;;;;;;10.70;2.50;;;22.80;81.30;;;;;;5025858;28;20090;-56
2023/08/03 01:57:07;;;;;;;13.77;3.15;;;22.80;81.30;;;;;;5024465;28;20257;-56
2023/08/03 01:59:32;;;;;;;8.00;2.40;;;22.80;82.00;;;;;;5023617;28;20042;-57
2023/08/03 02:01:58;;;;;;;7.97;2.30;;;22.70;81.40;;;;;;5023893;28;20370;-57
2023/08/03 02:04:23;;;;;;;8.75;2.50;;;22.70;81.50;;;;;;5023670;28;20057;-57
2023/08/03 02:06:49;;;;;;;4.95;2.00;;;22.70;81.50;;;;;;5025808;28;20029;-56
2023/08/03 02:09:15;;;;;;;5.05;2.40;;;22.70;81.50;;;;;;5025645;28;20026;-56
2023/08/03 02:11:40;;;;;;;5.47;2.47;;;22.70;81.50;;;;;;5007800;28;20523;-56
2023/08/03 02:14:06;;;;;;;9.63;2.35;;;22.70;81.50;;;;;;5025610;28;20029;-57
2023/08/03 02:16:32;;;;;;;5.65;2.30;;;22.60;81.40;;;;;;5025564;28;20070;-57
2023/08/03 02:18:57;;;;;;;5.72;2.50;;;22.60;81.50;;;;;;5025638;28;20042;-57
2023/08/03 02:21:23;;;;;;;6.80;2.50;;;22.60;81.60;;;;;;5023916;28;20030;-56
2023/08/03 02:23:49;;;;;;;4.93;2.25;;;22.60;81.50;;;;;;5023618;28;20034;-57
2023/08/03 02:26:14;;;;;;;13.85;3.13;;;22.70;81.60;;;;;;5023699;28;20029;-57
2023/08/03 02:28:40;;;;;;;11.43;2.75;;;22.60;82.10;;;;;;5023928;28;20080;-57
2023/08/03 02:31:05;;;;;;;6.53;2.78;;;22.60;81.40;;;;;;5025378;28;20033;-56
2023/08/03 02:33:31;;;;;;;8.32;2.60;;;22.60;81.50;;;;;;5025235;28;20030;-57
2023/08/03 02:35:57;;;;;;;5.45;2.40;;;22.60;81.40;;;;;;5021859;28;20037;-57
2023/08/03 02:38:22;;;;;;;6.95;2.95;;;22.60;81.30;;;;;;5022849;28;20037;-56
2023/08/03 02:40:48;;;;;;;5.85;2.40;;;22.50;81.40;;;;;;5023388;28;20044;-57
2023/08/03 02:43:13;;;;;;;4.70;2.15;;;22.50;81.40;;;;;;5024719;28;20034;-56
2023/08/03 02:45:39;;;;;;;10.80;2.25;;;22.50;81.30;;;;;;5022761;28;20034;-56
2023/08/03 02:48:04;;;;;;;7.00;2.45;;;22.40;81.30;;;;;;5023245;28;20088;-57
2023/08/03 02:50:30;;;;;;;13.63;3.05;;;22.40;81.30;;;;;;5025502;28;20032;-56
2023/08/03 02:52:55;;;;;;;9.23;2.30;;;22.40;81.30;;;;;;5023571;28;20034;-57
2023/08/03 02:55:21;;;;;;;9.65;2.63;;;22.40;81.50;;;;;;5005964;28;20470;-57
2023/08/03 02:57:46;;;;;;;6.47;2.30;;;22.30;81.30;;;;;;5023812;28;20112;-56
2023/08/03 03:00:12;;;;;;;7.95;2.40;;;22.30;81.30;;;;;;4990616;28;20386;-57
2023/08/03 03:02:38;;;;;;;8.23;2.58;;;22.30;81.10;;;;;;4988529;28;20053;-56
2023/08/03 03:05:04;;;;;;;7.30;2.53;;;22.30;81.10;;;;;;5007238;28;20041;-56
2023/08/03 03:07:33;;;;;;;12.95;3.35;;;22.30;80.80;;;;;;5004039;28;20049;-56
2023/08/03 03:09:58;;;;;;;9.40;2.72;;;22.20;80.40;;;;;;5005223;28;20026;-56
2023/08/03 03:12:24;;;;;;;7.00;2.72;;;22.20;80.50;;;;;;5003785;28;20049;-56
2023/08/03 03:14:49;;;;;;;10.20;3.00;;;22.20;80.30;;;;;;5003878;28;20090;-56
2023/08/03 03:17:15;;;;;;;5.50;2.20;;;22.20;80.10;;;;;;4987574;28;20081;-56
2023/08/03 03:19:41;;;;;;;7.68;2.72;;;22.20;80.00;;;;;;4971517;28;20026;-56
2023/08/03 03:22:07;;;;;;;9.15;2.85;;;22.20;79.60;;;;;;5003686;28;20030;-56
2023/08/03 03:24:33;;;;;;;24.90;4.65;;;22.10;79.30;;;;;;5003711;28;20479;-56
2023/08/03 03:26:58;;;;;;;39.88;4.78;;;22.10;79.10;;;;;;5005207;28;20117;-57
2023/08/03 03:29:24;;;;;;;16.00;3.90;;;22.10;79.10;;;;;;5005235;28;20045;-56
2023/08/03 03:31:49;;;;;;;24.83;4.22;;;22.00;79.00;;;;;;5003793;28;20033;-56
2023/08/03 03:34:15;;;;;;;22.20;4.57;;;22.10;79.30;;;;;;5007717;28;20038;-56
2023/08/03 03:36:40;;;;;;;18.50;4.45;;;22.00;79.00;;;;;;5009097;28;20034;-56
2023/08/03 03:39:09;;;;;;;24.23;4.25;;;22.00;79.00;;;;;;5007355;28;20034;-56
2023/08/03 03:41:35;;;;;;;20.77;4.22;;;22.00;79.00;;;;;;5008820;28;20356;-56
2023/08/03 03:44:00;;;;;;;19.45;4.00;;;22.00;78.90;;;;;;5007421;28;20042;-56
2023/08/03 03:46:26;;;;;;;18.95;3.78;;;22.00;78.80;;;;;;5007290;28;20018;-56
2023/08/03 03:48:51;;;;;;;25.17;4.85;;;22.00;78.60;;;;;;5013403;28;20068;-56
2023/08/03 03:51:19;;;;;;;27.63;3.83;;;22.00;78.50;;;;;;5025994;28;20030;-56
2023/08/03 03:53:45;;;;;;;20.42;4.40;;;22.00;78.40;;;;;;5027738;28;20114;-56
2023/08/03 03:56:11;;;;;;;14.65;3.58;;;21.90;78.10;;;;;;5028113;28;20050;-56
2023/08/03 03:58:36;;;;;;;24.25;4.63;;;21.90;78.10;;;;;;5027249;28;20121;-56
2023/08/03 04:01:02;;;;;;;17.58;4.05;;;21.90;78.10;;;;;;5027653;28;20191;-56
2023/08/03 04:03:27;;;;;;;21.23;4.32;;;21.90;78.10;;;;;;5027980;28;20133;-56
2023/08/03 04:05:53;;;;;;;11.40;3.20;;;21.80;77.70;;;;;;5027245;28;20042;-56
2023/08/03 04:08:19;;;;;;;15.10;3.45;;;21.80;77.70;;;;;;5009060;28;20053;-56
2023/08/03 04:10:44;;;;;;;20.73;4.55;;;21.80;77.60;;;;;;5026437;28;20026;-56
2023/08/03 04:13:10;;;;;;;12.50;3.20;;;21.80;77.70;;;;;;5026382;28;20034;-56
2023/08/03 04:15:35;;;;;;;11.88;3.47;;;21.80;77.70;;;;;;5027737;28;20036;-56
2023/08/03 04:18:01;;;;;;;14.00;3.13;;;21.70;77.60;;;;;;5026326;28;20538;-56
2023/08/03 04:20:26;;;;;;;10.13;3.28;;;21.70;77.60;;;;;;5026282;28;20025;-56
2023/08/03 04:22:52;;;;;;;7.57;2.67;;;21.70;77.60;;;;;;5027776;28;20057;-56
2023/08/03 04:25:18;;;;;;;10.68;2.90;;;21.70;77.50;;;;;;5026236;28;20034;-56
2023/08/03 04:27:43;;;;;;;15.20;3.47;;;21.70;77.50;;;;;;5009791;28;20113;-56
2023/08/03 04:30:11;;;;;;;16.10;3.15;;;21.70;77.50;;;;;;5027542;28;20515;-56
2023/08/03 04:32:36;;;;;;;12.68;2.85;;;21.60;77.50;;;;;;5025860;28;20045;-56
2023/08/03 04:35:03;;;;;;;10.15;2.88;;;21.60;77.50;;;;;;5009841;28;20026;-56
2023/08/03 04:37:29;;;;;;;16.10;3.20;;;21.60;77.60;;;;;;5027190;28;20033;-56
2023/08/03 04:39:55;;;;;;;13.15;2.95;;;21.60;77.60;;;;;;5009553;28;20034;-56
2023/08/03 04:42:20;;;;;;;10.27;2.92;;;21.60;77.60;;;;;;5025726;28;20323;-56
2023/08/03 04:44:46;;;;;;;12.73;3.40;;;21.60;77.90;;;;;;5024432;28;20046;-56
2023/08/03 04:47:11;;;;;;;7.88;2.33;;;21.60;78.00;;;;;;5009476;28;20052;-56
2023/08/03 04:49:37;;;;;;;8.75;2.97;;;21.60;78.00;;;;;;5025863;28;20018;-56
2023/08/03 04:52:02;;;;;;;12.60;2.95;;;21.60;78.10;;;;;;5025589;28;20069;-56
2023/08/03 04:54:28;;;;;;;10.43;2.67;;;21.50;78.00;;;;;;5024896;28;20059;-56
2023/08/03 04:56:53;;;;;;;14.95;3.22;;;21.50;77.90;;;;;;5024777;28;20052;-56
2023/08/03 04:59:19;;;;;;;11.85;3.03;;;21.50;77.90;;;;;;5001617;28;20026;-56
2023/08/03 05:01:44;;;;;;;11.88;2.65;;;21.50;77.20;;;;;;5016540;28;20474;-56
2023/08/03 05:04:10;;;;;;;7.13;2.42;;;21.50;77.20;;;;;;5019800;28;20033;-56
2023/08/03 05:06:36;;;;;;;9.90;2.38;;;21.50;77.20;;;;;;5025407;28;20479;-56
2023/08/03 05:09:01;;;;;;;7.70;2.35;;;21.40;77.00;;;;;;5025338;28;20064;-57
2023/08/03 05:11:27;;;;;;;6.93;2.40;;;21.50;77.10;;;;;;5025090;28;20034;-56
2023/08/03 05:13:52;;;;;;;9.80;2.30;;;21.50;77.30;;;;;;5026498;28;20129;-56
2023/08/03 05:16:24;;;;;;;14.40;2.60;;;21.50;77.10;;;;;;5025328;28;20056;-56
2023/08/03 05:18:49;;;;;;;10.65;2.47;;;21.40;76.90;;;;;;5025359;28;20030;-56
2023/08/03 05:21:15;;;;;;;6.28;2.38;;;21.40;76.90;;;;;;5008860;28;20045;-56
2023/08/03 05:23:40;;;;;;;7.72;2.38;;;21.40;76.80;;;;;;5025158;28;20403;-56
2023/08/03 05:26:06;;;;;;;6.30;2.00;;;21.40;76.80;;;;;;5026279;28;20026;-56
2023/08/03 05:28:32;;;;;;;5.43;2.28;;;21.40;76.90;;;;;;5025171;28;20028;-56
2023/08/03 05:30:57;;;;;;;8.45;2.03;;;21.30;76.70;;;;;;5026169;28;20030;-56
2023/08/03 05:33:26;;;;;;;8.57;2.30;;;21.30;76.70;;;;;;5026182;28;20034;-56
2023/08/03 05:35:51;;;;;;;6.50;2.08;;;21.30;76.70;;;;;;5024818;28;20029;-56
2023/08/03 05:38:17;;;;;;;5.85;2.13;;;21.30;76.70;;;;;;5008595;28;20041;-56
2023/08/03 05:40:42;;;;;;;4.13;1.92;;;21.30;76.70;;;;;;5024607;28;20076;-56
2023/08/03 05:43:12;;;;;;;3.95;1.73;;;21.30;76.60;;;;;;5024768;28;20060;-56
2023/08/03 05:45:47;;;;;;;4.25;1.80;;;21.30;76.70;;;;;;5024380;28;20061;-56
2023/08/03 05:48:17;;;;;;;6.50;1.98;;;21.30;76.70;;;;;;5024781;28;20037;-57
2023/08/03 05:50:47;;;;;;;4.47;1.70;;;21.20;76.60;;;;;;5025818;28;20076;-57
2023/08/03 05:53:13;;;;;;;7.75;1.98;;;21.20;76.60;;;;;;5026016;28;20026;-55
2023/08/03 05:55:39;;;;;;;5.88;1.42;;;21.20;76.60;;;;;;5024116;28;20076;-56
2023/08/03 05:58:05;;;;;;;4.85;1.60;;;21.20;76.70;;;;;;5025938;28;20030;-56
2023/08/03 06:00:30;;;;;;;5.78;1.88;;;21.20;76.80;;;;;;5025669;28;20041;-56
2023/08/03 06:02:56;;;;;;;6.28;1.60;;;21.20;76.50;;;;;;5025783;28;20029;-56
2023/08/03 06:05:42;;;;;;;4.22;1.48;;;21.20;76.50;;;;;;5007497;28;20030;-56
2023/08/03 06:08:12;;;;;;;;;;;21.20;76.30;;;;;;5024541;28;20030;-56
2023/08/03 06:10:39;;;;;;;5.18;1.65;;;21.20;75.50;;;;;;5024226;28;19913;-56
2023/08/03 06:13:04;;;;;;;6.18;1.30;;;21.20;75.90;;;;;;5008203;28;20030;-56
2023/08/03 06:15:32;;;;;;;4.53;1.63;;;21.20;75.90;;;;;;5007750;28;20052;-56
2023/08/03 06:18:02;;;;;;;7.50;1.75;;;21.20;75.80;;;;;;5007798;28;20041;-56
2023/08/03 06:20:31;;;;;;;6.07;1.50;;;21.20;75.80;;;;;;5024514;28;20065;-56
2023/08/03 06:22:56;;;;;;;5.45;1.48;;;21.20;75.70;;;;;;5008007;28;20030;-56
2023/08/03 06:25:22;;;;;;;5.07;1.70;;;21.20;75.90;;;;;;5007437;28;20056;-56
2023/08/03 06:27:50;;;;;;;3.55;1.30;;;21.20;75.50;;;;;;5025272;28;20431;-56
2023/08/03 06:30:19;;;;;;;20.20;3.00;;;21.20;75.70;;;;;;5023748;28;20026;-56
2023/08/03 06:32:45;;;;;;;8.52;1.75;;;21.10;75.30;;;;;;5004730;28;20029;-56
2023/08/03 06:35:35;;;;;;;13.52;1.98;;;21.20;75.10;;;;;;5016876;28;20037;-56
2023/08/03 06:38:02;;;;;;;16.85;2.47;;;21.20;75.30;;;;;;5023723;28;20049;-56
2023/08/03 06:40:27;;;;;;;11.73;2.15;;;21.20;75.00;;;;;;5025457;28;20093;-56
2023/08/03 06:42:53;;;;;;;16.30;2.65;;;21.20;75.50;;;;;;5006683;28;20045;-56
2023/08/03 06:45:18;;;;;;;12.20;2.03;;;21.20;75.10;;;;;;5006927;28;20030;-56
2023/08/03 06:47:44;;;;;;;13.63;2.13;;;21.20;75.20;;;;;;5021556;28;20030;-56
2023/08/03 06:50:09;;;;;;;5.88;1.80;;;21.20;75.00;;;;;;5006579;28;20026;-56
2023/08/03 06:52:35;;;;;;;30.73;4.40;;;21.10;75.30;;;;;;5013162;28;20025;-56
2023/08/03 06:55:01;;;;;;;43.83;6.13;;;21.20;75.30;;;;;;5008522;28;20026;-56
2023/08/03 06:57:26;;;;;;;14.23;2.55;;;21.10;75.40;;;;;;5007830;28;20026;-56
2023/08/03 06:59:55;;;;;;;22.10;2.65;;;21.10;75.20;;;;;;5023114;28;20033;-56
2023/08/03 07:02:21;;;;;;;11.88;2.50;;;21.10;75.30;;;;;;5023509;28;20105;-56
2023/08/03 07:04:46;;;;;;;8.60;2.38;;;21.10;75.20;;;;;;5023376;28;20056;-56
2023/08/03 07:07:14;;;;;;;10.32;2.25;;;21.10;75.40;;;;;;5023606;28;20045;-56
2023/08/03 07:09:39;;;;;;;7.25;1.90;;;21.10;75.30;;;;;;5029521;28;20040;-56
2023/08/03 07:12:09;;;;;;;13.18;2.67;;;21.10;75.40;;;;;;5027869;28;20026;-56
2023/08/03 07:14:34;;;;;;;8.63;2.22;;;21.10;75.30;;;;;;5027741;28;20101;-56
2023/08/03 07:17:00;;;;;;;7.55;1.77;;;21.10;75.30;;;;;;5027549;28;20443;-56
2023/08/03 07:19:26;;;;;;;9.73;2.47;;;21.10;75.20;;;;;;5027724;28;20040;-56
2023/08/03 07:21:51;;;;;;;10.20;2.13;;;21.10;75.40;;;;;;5027199;28;20488;-56
2023/08/03 07:24:17;;;;;;;9.88;1.98;;;21.10;75.30;;;;;;5027028;28;20113;-56
2023/08/03 07:26:42;;;;;;;40.30;5.55;;;21.10;75.30;;;;;;5027117;28;20026;-56
2023/08/03 07:29:08;;;;;;;28.75;4.80;;;21.00;75.20;;;;;;5027259;28;20069;-56
2023/08/03 07:31:33;;;;;;;21.13;3.25;;;21.10;75.30;;;;;;5028580;28;20026;-56
2023/08/03 07:33:59;;;;;;;19.45;2.72;;;21.10;75.20;;;;;;5027012;28;20103;-56
2023/08/03 07:36:24;;;;;;;11.20;2.65;;;21.10;75.40;;;;;;5028377;28;20054;-56
2023/08/03 07:38:50;;;;;;;18.58;2.88;;;21.10;75.40;;;;;;5028175;28;20030;-56
2023/08/03 07:41:15;;;;;;;12.35;2.55;;;21.10;75.40;;;;;;5028345;28;20033;-56
2023/08/03 07:43:41;;;;;;;12.43;2.65;;;21.10;75.40;;;;;;5026817;28;20030;-56
2023/08/03 07:46:06;;;;;;;24.08;2.90;;;21.10;75.40;;;;;;5026535;28;20037;-56
2023/08/03 07:48:32;;;;;;;20.13;3.20;;;21.10;75.30;;;;;;5026551;28;20034;-56
2023/08/03 07:50:58;;;;;;;13.50;3.00;;;21.10;75.50;;;;;;5027896;28;20346;-56
2023/08/03 07:53:23;;;;;;;12.60;2.38;;;21.10;75.40;;;;;;5026541;28;20026;-56
2023/08/03 07:55:49;;;;;;;18.85;2.80;;;21.10;75.20;;;;;;5026467;28;20033;-56
2023/08/03 07:58:14;;;;;;;14.75;2.30;;;21.10;75.40;;;;;;5027723;28;20033;-56
2023/08/03 08:00:40;;;;;;;17.33;3.13;;;21.00;75.40;;;;;;5024830;28;20048;-57
2023/08/03 08:03:05;;;;;;;14.18;2.88;;;21.10;75.30;;;;;;5021665;28;20181;-56
2023/08/03 08:05:31;;;;;;;29.48;3.92;;;21.10;75.40;;;;;;5008708;28;20034;-55
2023/08/03 08:07:56;;;;;;;23.10;3.75;;;21.10;75.10;;;;;;5025383;28;20036;-57
2023/08/03 08:10:22;;;;;;;26.80;3.60;;;21.10;75.20;;;;;;5041374;28;20033;-56
2023/08/03 08:12:47;;;;;;;34.97;4.82;;;21.10;75.10;;;;;;5025620;28;20084;-56
2023/08/03 08:15:13;;;;;;;21.58;3.80;;;21.10;75.00;;;;;;5025717;28;20037;-56
2023/08/03 08:17:38;;;;;;;36.22;4.22;;;21.10;74.90;;;;;;5025994;28;20049;-56
2023/08/03 08:20:05;;;;;;;37.78;5.80;;;21.10;74.90;;;;;;5027132;28;20022;-56
2023/08/03 08:22:30;;;;;;;27.30;4.47;;;21.10;74.80;;;;;;5026254;28;20102;-56
2023/08/03 08:24:56;;;;;;;17.98;3.60;;;21.10;74.40;;;;;;5025801;28;20021;-56
2023/08/03 08:27:22;;;;;;;17.88;3.08;;;21.10;74.20;;;;;;5026085;28;20107;-56
2023/08/03 08:29:47;;;;;;;17.83;2.70;;;21.10;74.00;;;;;;5026325;28;20121;-56
2023/08/03 08:32:13;;;;;;;25.35;3.00;;;21.10;73.70;;;;;;5026256;28;20060;-56
2023/08/03 08:34:38;;;;;;;22.45;2.67;;;21.10;73.60;;;;;;5036501;28;20022;-57
2023/08/03 08:37:05;;;;;;;16.38;2.60;;;21.10;73.70;;;;;;5007835;28;20474;-55
2023/08/03 08:39:30;;;;;;;20.40;2.78;;;21.10;73.20;;;;;;5024335;28;20041;-56
2023/08/03 08:41:56;;;;;;;17.45;2.70;;;21.10;73.10;;;;;;5027186;28;20026;-56
2023/08/03 08:44:21;;;;;;;15.77;2.50;;;21.10;72.90;;;;;;5020850;28;20048;-56
2023/08/03 08:46:47;;;;;;;14.23;1.92;;;21.20;72.80;;;;;;5024788;28;20022;-56
2023/08/03 08:49:13;;;;;;;10.27;1.92;;;21.20;73.00;;;;;;5023770;28;20030;-56
2023/08/03 08:51:41;;;;;;;10.48;2.45;;;21.20;73.10;;;;;;5025918;28;20042;-55
2023/08/03 08:54:06;;;;;;;12.73;2.20;;;21.20;73.10;;;;;;5023749;28;20055;-56
2023/08/03 08:56:32;;;;;;;11.50;2.30;;;21.20;73.10;;;;;;5023808;28;20439;-56
2023/08/03 08:58:57;;;;;;;49.13;17.77;;;21.20;73.30;;;;;;5024954;28;20108;-56
2023/08/03 09:01:23;;;;;;;21.77;7.63;;;21.20;73.40;;;;;;5024925;28;20101;-56
2023/08/03 09:03:51;;;;;;;33.38;11.68;;;21.20;73.00;;;;;;5023822;28;20136;-56
2023/08/03 09:06:18;;;;;;;26.50;6.95;;;21.20;72.90;;;;;;5026769;28;20038;-56
2023/08/03 09:08:54;;;;;;;24.27;5.55;;;21.20;72.90;;;;;;5022392;28;20030;-56
2023/08/03 09:11:38;;;;;;;22.90;5.57;;;21.20;72.80;;;;;;5005399;28;20029;-56
2023/08/03 09:14:06;;;;;;;22.92;5.65;;;21.20;72.70;;;;;;5009068;28;20033;-57
2023/08/03 09:16:32;;;;;;;11.55;3.45;;;21.30;72.60;;;;;;5025034;28;20036;-56
2023/08/03 09:18:57;;;;;;;14.00;4.28;;;21.30;72.50;;;;;;5026215;28;20042;-57
2023/08/03 09:21:23;;;;;;;21.05;4.32;;;21.30;72.70;;;;;;5024536;28;20022;-56
2023/08/03 09:23:48;;;;;;;21.50;4.63;;;21.30;73.20;;;;;;5024664;28;20018;-56
2023/08/03 09:26:14;;;;;;;20.42;4.55;;;21.30;72.40;;;;;;5025487;28;20026;-56
2023/08/03 09:28:42;;;;;;;31.77;4.72;;;21.30;72.20;;;;;;5024941;28;20030;-56
2023/08/03 09:31:08;;;;;;;15.30;3.60;;;21.30;72.30;;;;;;5041191;28;20097;-57
2023/08/03 09:33:34;;;;;;;23.90;3.92;;;21.30;72.40;;;;;;5021868;28;20034;-57
2023/08/03 09:36:11;;;;;;;20.30;3.45;;;21.30;72.50;;;;;;5023713;28;20362;-55
2023/08/03 09:38:37;;;;;;;33.13;4.03;;;21.30;72.50;;;;;;5023481;28;20036;-56
2023/08/03 09:41:03;;;;;;;23.33;3.95;;;21.30;72.70;;;;;;5022564;28;20486;-57
2023/08/03 09:43:28;;;;;;;30.05;4.85;;;21.30;72.80;;;;;;5021526;28;20120;-60
2023/08/03 09:45:55;;;;;;;26.65;4.22;;;21.30;72.90;;;;;;5025093;28;20033;-60
2023/08/03 09:48:20;;;;;;;24.88;3.83;;;21.30;72.80;;;;;;5025146;28;20102;-60
2023/08/03 09:50:54;;;;;;;23.10;3.42;;;21.40;72.70;;;;;;5017161;28;20116;-60
2023/08/03 09:53:24;;;;;;;18.38;3.13;;;21.40;72.60;;;;;;5022895;28;20081;-60
2023/08/03 09:55:58;;;;;;;17.90;3.42;;;21.40;72.50;;;;;;5007674;28;20470;-60
2023/08/03 09:58:30;;;;;;;17.17;3.17;;;21.40;72.50;;;;;;5015974;28;20034;-60
2023/08/03 10:00:58;;;;;;;16.08;2.55;;;21.40;72.70;;;;;;5018958;28;20022;-60
2023/08/03 10:03:30;;;;;;;17.08;2.97;;;21.40;72.80;;;;;;5020815;28;20034;-60
2023/08/03 10:05:56;;;;;;;15.27;2.40;;;21.40;72.70;;;;;;5018978;28;20028;-57
2023/08/03 10:08:25;;;;;;;20.52;2.80;;;21.40;72.40;;;;;;5027559;28;20033;-57
2023/08/03 10:10:51;;;;;;;13.65;2.70;;;21.50;72.10;;;;;;5026250;28;20022;-56
2023/08/03 10:13:17;;;;;;;26.65;2.50;;;21.50;72.20;;;;;;5016726;28;20033;-57
2023/08/03 10:15:42;;;;;;;16.27;2.42;;;21.60;72.00;;;;;;5019298;28;20030;-56
2023/08/03 10:18:08;;;;;;;20.13;3.30;;;21.50;71.80;;;;;;5024793;28;20054;-56
2023/08/03 10:20:37;;;;;;;11.93;2.67;;;21.60;71.70;;;;;;5020375;28;20160;-56
2023/08/03 10:23:17;;;;;;;14.13;2.75;;;21.70;71.70;;;;;;5002531;28;20192;-56
2023/08/03 10:25:53;;;;;;;12.40;2.65;;;21.70;71.80;;;;;;5021443;28;20454;-56
2023/08/03 10:28:40;;;;;;;16.05;2.63;;;21.70;71.80;;;;;;5019781;28;20040;-57
2023/08/03 10:31:18;;;;;;;18.50;2.85;;;21.80;71.90;;;;;;5017611;28;20026;-56
2023/08/03 10:33:50;;;;;;;34.88;3.30;;;21.80;71.90;;;;;;5023794;28;20026;-56
2023/08/03 10:36:27;;;;;;;17.17;3.38;;;21.90;72.20;;;;;;5022881;28;20595;-57
2023/08/03 10:39:00;;;;;;;15.05;3.25;;;21.90;72.10;;;;;;5016232;28;20375;-57
2023/08/03 10:41:27;;;;;;;24.35;3.85;;;21.90;72.00;;;;;;5004907;28;20026;-57
2023/08/03 10:44:05;;;;;;;23.73;4.28;;;22.00;71.90;;;;;;5023845;28;20038;-56
2023/08/03 10:46:31;;;;;;;27.92;3.85;;;22.00;71.80;;;;;;5020543;28;20063;-56
2023/08/03 10:48:57;;;;;;;30.05;3.88;;;22.10;72.50;;;;;;5006600;28;20046;-57
2023/08/03 10:51:22;;;;;;;38.22;4.55;;;22.00;72.00;;;;;;5021744;28;20036;-57
2023/08/03 10:53:48;;;;;;;27.15;3.28;;;22.10;71.80;;;;;;5021194;28;20089;-56
2023/08/03 10:56:14;;;;;;;42.85;5.68;;;22.10;71.70;;;;;;5013331;28;20026;-56
2023/08/03 10:58:50;;;;;;;41.30;5.95;;;22.20;71.30;;;;;;5019796;28;20144;-56
2023/08/03 11:01:22;;;;;;;46.20;5.68;;;22.20;71.30;;;;;;5018035;28;20060;-56
2023/08/03 11:03:48;;;;;;;41.55;5.45;;;22.30;71.30;;;;;;5018443;28;20066;-56
2023/08/03 11:06:14;;;;;;;52.00;6.65;;;22.30;71.10;;;;;;4995125;28;20088;-57
2023/08/03 11:08:39;;;;;;;58.83;6.75;;;22.40;71.00;;;;;;5026232;28;20081;-57
2023/08/03 11:11:12;;;;;;;55.55;6.10;;;22.40;70.90;;;;;;5021704;28;20040;-57
2023/08/03 11:13:44;;;;;;;40.35;5.40;;;22.40;71.30;;;;;;5020223;28;20026;-57
2023/08/03 11:16:13;;;;;;;42.92;5.03;;;22.50;70.90;;;;;;5020760;28;20503;-56
2023/08/03 11:18:49;;;;;;;44.63;5.85;;;22.50;70.10;;;;;;4997921;28;20038;-57
2023/08/03 11:21:15;;;;;;;48.63;6.63;;;22.50;69.50;;;;;;5022607;28;20164;-57
2023/08/03 11:23:40;;;;;;;64.30;7.25;;;22.60;69.40;;;;;;5004626;28;20397;-56
2023/08/03 11:26:08;;;;;;;42.85;6.55;;;22.70;69.20;;;;;;5015060;28;20033;-56
2023/08/03 11:28:40;;;;;;;49.05;6.30;;;22.80;69.10;;;;;;5021797;28;20034;-56
2023/08/03 11:31:17;;;;;;;47.97;6.00;;;22.90;69.30;;;;;;5013819;28;20132;-57
2023/08/03 11:33:53;;;;;;;52.72;5.82;;;22.90;69.00;;;;;;5017268;28;20235;-56
2023/08/03 11:36:19;;;;;;;46.40;5.35;;;23.00;69.10;;;;;;5018181;28;20026;-57
2023/08/03 11:38:45;;;;;;;36.55;5.65;;;23.10;69.00;;;;;;5013710;28;20050;-56
2023/08/03 11:41:15;;;;;;;30.77;4.05;;;23.10;68.90;;;;;;5013874;28;20070;-56
2023/08/03 11:43:40;;;;;;;45.55;5.72;;;23.10;69.00;;;;;;5021038;28;20053;-56
2023/08/03 11:46:06;;;;;;;25.13;4.13;;;23.10;69.30;;;;;;5017860;28;20065;-56
2023/08/03 11:48:32;;;;;;;42.17;5.55;;;23.10;69.30;;;;;;5021813;28;20026;-56
2023/08/03 11:51:01;;;;;;;48.00;5.53;;;23.20;69.70;;;;;;5002396;28;20025;-56
2023/08/03 11:53:27;;;;;;;44.35;6.97;;;23.30;68.90;;;;;;5016552;28;20030;-56
2023/08/03 11:55:53;;;;;;;46.60;6.63;;;23.40;68.60;;;;;;5025705;28;20034;-56
2023/08/03 11:58:22;;;;;;;52.80;6.55;;;23.50;68.30;;;;;;5036222;28;20392;-57
2023/08/03 12:00:48;;;;;;;50.72;7.43;;;23.50;68.00;;;;;;5036599;28;20033;-57
2023/08/03 12:03:32;;;;;;;40.53;6.03;;;23.60;67.70;;;;;;5009582;28;20561;-56
2023/08/03 12:06:02;;;;;;;52.92;6.53;;;23.70;67.70;;;;;;5025123;28;20442;-56
2023/08/03 12:08:27;;;;;;;49.10;6.25;;;23.80;67.80;;;;;;5027526;28;20037;-56
2023/08/03 12:11:00;;;;;;;34.13;5.45;;;23.90;67.40;;;;;;5027641;28;20018;-56
2023/08/03 12:13:26;;;;;;;30.25;4.35;;;23.90;67.10;;;;;;5025438;28;20056;-56
2023/08/03 12:15:52;;;;;;;45.17;5.65;;;23.90;66.90;;;;;;5026032;28;20022;-57
2023/08/03 12:18:17;;;;;;;67.53;7.00;;;23.90;66.20;;;;;;5009944;28;20052;-56
2023/08/03 12:20:43;;;;;;;32.60;4.60;;;24.00;65.70;;;;;;5027641;28;20034;-56
2023/08/03 12:23:08;;;;;;;33.45;4.53;;;24.00;65.80;;;;;;5024178;28;20093;-56
2023/08/03 12:25:34;;;;;;;26.65;3.60;;;24.00;66.20;;;;;;5014491;28;20045;-56
2023/08/03 12:28:00;;;;;;;21.65;3.17;;;24.10;66.10;;;;;;5018166;28;20030;-56
2023/08/03 12:30:26;;;;;;;19.02;3.47;;;24.10;65.50;;;;;;5006417;28;20030;-57
2023/08/03 12:32:51;;;;;;;37.85;4.03;;;24.20;65.30;;;;;;5019454;28;20036;-56
2023/08/03 12:35:17;;;;;;;18.13;3.33;;;24.20;64.90;;;;;;5026345;28;20054;-56
2023/08/03 12:37:43;;;;;;;32.83;4.53;;;24.30;65.10;;;;;;5031074;28;20036;-56